sensor_id;sensor_type;location;lat;lon;timestamp;P1;durP1;ratioP1;P2;durP2;ratioP2
62353;SDS011;48391;49.184;2.418;2023-02-01T00:00:47;5.47;;;1.75;;
62353;SDS011;48391;49.184;2.418;2023-02-01T00:03:13;1.77;;;1.10;;
62353;SDS011;48391;49.184;2.418;2023-02-01T00:05:39;2.47;;;1.23;;
62353;SDS011;48391;49.184;2.418;2023-02-01T00:08:05;3.35;;;1.23;;
62353;SDS011;48391;49.184;2.418;2023-02-01T00:10:31;0.63;;;0.60;;
62353;SDS011;48391;49.184;2.418;2023-02-01T00:12:57;0.90;;;0.60;;
62353;SDS011;48391;49.184;2.418;2023-02-01T00:15:23;1.67;;;0.70;;
62353;SDS011;48391;49.184;2.418;2023-02-01T00:17:53;1.65;;;0.95;;
62353;SDS011;48391;49.184;2.418;2023-02-01T00:20:19;4.25;;;1.20;;
62353;SDS011;48391;49.184;2.418;2023-02-01T00:22:45;1.30;;;0.93;;
62353;SDS011;48391;49.184;2.418;2023-02-01T00:25:11;1.25;;;0.93;;
62353;SDS011;48391;49.184;2.418;2023-02-01T00:27:37;3.08;;;0.77;;
62353;SDS011;48391;49.184;2.418;2023-02-01T00:30:03;0.70;;;0.70;;
62353;SDS011;48391;49.184;2.418;2023-02-01T00:32:29;3.80;;;1.30;;
62353;SDS011;48391;49.184;2.418;2023-02-01T00:34:56;1.63;;;0.73;;
62353;SDS011;48391;49.184;2.418;2023-02-01T00:37:22;3.85;;;1.40;;
62353;SDS011;48391;49.184;2.418;2023-02-01T00:39:48;0.95;;;0.47;;
62353;SDS011;48391;49.184;2.418;2023-02-01T00:42:15;2.47;;;0.80;;
62353;SDS011;48391;49.184;2.418;2023-02-01T00:44:41;1.80;;;0.68;;
62353;SDS011;48391;49.184;2.418;2023-02-01T00:47:07;2.90;;;1.70;;
62353;SDS011;48391;49.184;2.418;2023-02-01T00:49:33;2.63;;;1.65;;
62353;SDS011;48391;49.184;2.418;2023-02-01T00:51:59;6.95;;;1.92;;
62353;SDS011;48391;49.184;2.418;2023-02-01T00:54:25;3.33;;;2.05;;
62353;SDS011;48391;49.184;2.418;2023-02-01T00:56:51;6.88;;;2.33;;
62353;SDS011;48391;49.184;2.418;2023-02-01T00:59:17;4.82;;;1.63;;
62353;SDS011;48391;49.184;2.418;2023-02-01T01:01:43;2.78;;;2.65;;
62353;SDS011;48391;49.184;2.418;2023-02-01T01:04:09;2.83;;;1.40;;
62353;SDS011;48391;49.184;2.418;2023-02-01T01:06:35;2.28;;;1.30;;
62353;SDS011;48391;49.184;2.418;2023-02-01T01:09:03;3.63;;;1.58;;
62353;SDS011;48391;49.184;2.418;2023-02-01T01:11:31;2.30;;;1.60;;
62353;SDS011;48391;49.184;2.418;2023-02-01T01:13:58;2.03;;;1.38;;
62353;SDS011;48391;49.184;2.418;2023-02-01T01:16:24;3.70;;;0.95;;
62353;SDS011;48391;49.184;2.418;2023-02-01T01:21:34;6.72;;;2.63;;
62353;SDS011;48391;49.184;2.418;2023-02-01T01:24:01;7.95;;;3.60;;
62353;SDS011;48391;49.184;2.418;2023-02-01T01:26:27;7.53;;;3.40;;
62353;SDS011;48391;49.184;2.418;2023-02-01T01:28:55;8.73;;;2.95;;
62353;SDS011;48391;49.184;2.418;2023-02-01T01:31:21;6.95;;;2.22;;
62353;SDS011;48391;49.184;2.418;2023-02-01T01:33:51;6.18;;;2.00;;
62353;SDS011;48391;49.184;2.418;2023-02-01T01:36:17;1.65;;;1.13;;
62353;SDS011;48391;49.184;2.418;2023-02-01T01:38:44;3.22;;;1.45;;
62353;SDS011;48391;49.184;2.418;2023-02-01T01:41:12;4.43;;;1.17;;
62353;SDS011;48391;49.184;2.418;2023-02-01T01:43:58;5.38;;;2.05;;
62353;SDS011;48391;49.184;2.418;2023-02-01T01:46:24;3.92;;;1.95;;
62353;SDS011;48391;49.184;2.418;2023-02-01T01:48:53;1.80;;;1.20;;
62353;SDS011;48391;49.184;2.418;2023-02-01T01:51:20;4.32;;;1.75;;
62353;SDS011;48391;49.184;2.418;2023-02-01T01:53:48;6.18;;;1.73;;
62353;SDS011;48391;49.184;2.418;2023-02-01T01:56:16;3.13;;;1.10;;
62353;SDS011;48391;49.184;2.418;2023-02-01T01:58:42;6.47;;;1.88;;
62353;SDS011;48391;49.184;2.418;2023-02-01T02:01:08;5.38;;;1.83;;
62353;SDS011;48391;49.184;2.418;2023-02-01T02:03:37;5.72;;;1.95;;
62353;SDS011;48391;49.184;2.418;2023-02-01T02:06:05;2.60;;;0.80;;
62353;SDS011;48391;49.184;2.418;2023-02-01T02:08:34;3.80;;;1.25;;
62353;SDS011;48391;49.184;2.418;2023-02-01T02:13:41;3.88;;;1.17;;
62353;SDS011;48391;49.184;2.418;2023-02-01T02:18:56;2.80;;;0.95;;
62353;SDS011;48391;49.184;2.418;2023-02-01T02:34:38;4.00;;;1.52;;
62353;SDS011;48391;49.184;2.418;2023-02-01T02:37:15;6.40;;;2.08;;
62353;SDS011;48391;49.184;2.418;2023-02-01T02:39:50;5.18;;;1.40;;
62353;SDS011;48391;49.184;2.418;2023-02-01T02:42:21;2.67;;;1.05;;
62353;SDS011;48391;49.184;2.418;2023-02-01T02:45:12;6.40;;;2.10;;
62353;SDS011;48391;49.184;2.418;2023-02-01T02:48:12;1.98;;;1.60;;
62353;SDS011;48391;49.184;2.418;2023-02-01T02:50:42;4.00;;;1.52;;
62353;SDS011;48391;49.184;2.418;2023-02-01T02:53:37;3.40;;;0.63;;
62353;SDS011;48391;49.184;2.418;2023-02-01T02:56:23;3.22;;;0.93;;
62353;SDS011;48391;49.184;2.418;2023-02-01T02:59:08;1.77;;;0.38;;
62353;SDS011;48391;49.184;2.418;2023-02-01T03:01:53;3.65;;;1.80;;
62353;SDS011;48391;49.184;2.418;2023-02-01T03:04:39;5.00;;;1.20;;
62353;SDS011;48391;49.184;2.418;2023-02-01T03:10:03;12.60;;;2.03;;
62353;SDS011;48391;49.184;2.418;2023-02-01T03:15:15;4.55;;;1.65;;
62353;SDS011;48391;49.184;2.418;2023-02-01T03:17:44;7.57;;;1.50;;
62353;SDS011;48391;49.184;2.418;2023-02-01T03:20:14;8.55;;;2.17;;
62353;SDS011;48391;49.184;2.418;2023-02-01T03:22:41;6.18;;;1.95;;
62353;SDS011;48391;49.184;2.418;2023-02-01T03:25:10;8.18;;;1.80;;
62353;SDS011;48391;49.184;2.418;2023-02-01T03:27:41;8.35;;;3.30;;
62353;SDS011;48391;49.184;2.418;2023-02-01T03:32:38;7.60;;;1.83;;
62353;SDS011;48391;49.184;2.418;2023-02-01T03:37:52;4.90;;;0.93;;
62353;SDS011;48391;49.184;2.418;2023-02-01T03:40:21;5.03;;;1.30;;
62353;SDS011;48391;49.184;2.418;2023-02-01T03:42:49;9.55;;;1.83;;
62353;SDS011;48391;49.184;2.418;2023-02-01T03:45:18;5.15;;;1.00;;
62353;SDS011;48391;49.184;2.418;2023-02-01T03:47:47;2.47;;;1.13;;
62353;SDS011;48391;49.184;2.418;2023-02-01T03:50:15;4.50;;;1.00;;
62353;SDS011;48391;49.184;2.418;2023-02-01T03:52:56;4.80;;;0.88;;
62353;SDS011;48391;49.184;2.418;2023-02-01T03:55:24;5.50;;;1.42;;
62353;SDS011;48391;49.184;2.418;2023-02-01T03:58:04;6.13;;;0.82;;
62353;SDS011;48391;49.184;2.418;2023-02-01T04:00:32;3.60;;;0.82;;
62353;SDS011;48391;49.184;2.418;2023-02-01T04:02:58;4.88;;;1.60;;
62353;SDS011;48391;49.184;2.418;2023-02-01T04:05:24;9.48;;;1.58;;
62353;SDS011;48391;49.184;2.418;2023-02-01T04:07:51;8.65;;;2.53;;
62353;SDS011;48391;49.184;2.418;2023-02-01T04:10:19;4.80;;;0.93;;
62353;SDS011;48391;49.184;2.418;2023-02-01T04:12:45;7.25;;;1.83;;
62353;SDS011;48391;49.184;2.418;2023-02-01T04:15:11;5.50;;;2.08;;
62353;SDS011;48391;49.184;2.418;2023-02-01T04:17:37;4.50;;;1.15;;
62353;SDS011;48391;49.184;2.418;2023-02-01T04:20:03;2.60;;;0.70;;
62353;SDS011;48391;49.184;2.418;2023-02-01T04:22:29;3.10;;;0.77;;
62353;SDS011;48391;49.184;2.418;2023-02-01T04:24:56;8.10;;;1.38;;
62353;SDS011;48391;49.184;2.418;2023-02-01T04:27:22;0.82;;;0.45;;
62353;SDS011;48391;49.184;2.418;2023-02-01T04:29:48;6.03;;;1.25;;
62353;SDS011;48391;49.184;2.418;2023-02-01T04:32:17;1.75;;;0.52;;
62353;SDS011;48391;49.184;2.418;2023-02-01T04:34:44;0.98;;;0.40;;
62353;SDS011;48391;49.184;2.418;2023-02-01T04:37:10;6.88;;;1.40;;
62353;SDS011;48391;49.184;2.418;2023-02-01T04:39:37;4.97;;;1.08;;
62353;SDS011;48391;49.184;2.418;2023-02-01T04:42:03;1.38;;;0.70;;
62353;SDS011;48391;49.184;2.418;2023-02-01T04:44:29;2.65;;;1.08;;
62353;SDS011;48391;49.184;2.418;2023-02-01T04:46:55;2.22;;;0.80;;
62353;SDS011;48391;49.184;2.418;2023-02-01T04:49:21;4.80;;;1.13;;
62353;SDS011;48391;49.184;2.418;2023-02-01T04:51:47;5.97;;;1.85;;
62353;SDS011;48391;49.184;2.418;2023-02-01T04:54:13;6.55;;;2.53;;
62353;SDS011;48391;49.184;2.418;2023-02-01T04:56:39;5.47;;;3.05;;
62353;SDS011;48391;49.184;2.418;2023-02-01T04:59:06;9.55;;;4.75;;
62353;SDS011;48391;49.184;2.418;2023-02-01T05:01:32;11.77;;;3.22;;
62353;SDS011;48391;49.184;2.418;2023-02-01T05:03:58;11.73;;;3.55;;
62353;SDS011;48391;49.184;2.418;2023-02-01T05:06:24;6.88;;;3.10;;
62353;SDS011;48391;49.184;2.418;2023-02-01T05:08:50;9.10;;;3.20;;
62353;SDS011;48391;49.184;2.418;2023-02-01T05:11:16;11.13;;;2.88;;
62353;SDS011;48391;49.184;2.418;2023-02-01T05:16:28;6.30;;;2.13;;
62353;SDS011;48391;49.184;2.418;2023-02-01T05:18:54;6.60;;;2.53;;
62353;SDS011;48391;49.184;2.418;2023-02-01T05:21:20;6.57;;;1.90;;
62353;SDS011;48391;49.184;2.418;2023-02-01T05:23:46;14.27;;;3.35;;
62353;SDS011;48391;49.184;2.418;2023-02-01T05:26:31;10.50;;;2.13;;
62353;SDS011;48391;49.184;2.418;2023-02-01T05:28:57;5.13;;;1.75;;
62353;SDS011;48391;49.184;2.418;2023-02-01T05:31:23;5.38;;;1.33;;
62353;SDS011;48391;49.184;2.418;2023-02-01T05:33:49;4.13;;;0.90;;
62353;SDS011;48391;49.184;2.418;2023-02-01T05:36:15;7.60;;;1.00;;
62353;SDS011;48391;49.184;2.418;2023-02-01T05:38:41;7.90;;;0.88;;
62353;SDS011;48391;49.184;2.418;2023-02-01T05:41:07;0.93;;;0.20;;
62353;SDS011;48391;49.184;2.418;2023-02-01T05:43:33;6.22;;;1.63;;
62353;SDS011;48391;49.184;2.418;2023-02-01T05:46:00;3.10;;;1.20;;
62353;SDS011;48391;49.184;2.418;2023-02-01T05:48:26;5.10;;;1.58;;
62353;SDS011;48391;49.184;2.418;2023-02-01T05:50:52;3.38;;;0.77;;
62353;SDS011;48391;49.184;2.418;2023-02-01T05:53:18;1.80;;;0.40;;
62353;SDS011;48391;49.184;2.418;2023-02-01T05:55:44;8.55;;;0.90;;
62353;SDS011;48391;49.184;2.418;2023-02-01T05:58:10;1.30;;;0.60;;
62353;SDS011;48391;49.184;2.418;2023-02-01T06:00:37;1.48;;;0.57;;
62353;SDS011;48391;49.184;2.418;2023-02-01T06:03:03;3.28;;;0.80;;
62353;SDS011;48391;49.184;2.418;2023-02-01T06:05:29;4.93;;;1.40;;
62353;SDS011;48391;49.184;2.418;2023-02-01T06:07:55;5.15;;;1.35;;
62353;SDS011;48391;49.184;2.418;2023-02-01T06:10:22;3.83;;;1.15;;
62353;SDS011;48391;49.184;2.418;2023-02-01T06:12:48;7.18;;;1.92;;
62353;SDS011;48391;49.184;2.418;2023-02-01T06:15:14;4.95;;;1.00;;
62353;SDS011;48391;49.184;2.418;2023-02-01T06:17:44;10.50;;;2.42;;
62353;SDS011;48391;49.184;2.418;2023-02-01T06:20:11;11.80;;;3.38;;
62353;SDS011;48391;49.184;2.418;2023-02-01T06:22:37;8.57;;;2.00;;
62353;SDS011;48391;49.184;2.418;2023-02-01T06:25:04;9.63;;;3.65;;
62353;SDS011;48391;49.184;2.418;2023-02-01T06:27:31;10.07;;;4.20;;
62353;SDS011;48391;49.184;2.418;2023-02-01T06:29:57;5.68;;;2.42;;
62353;SDS011;48391;49.184;2.418;2023-02-01T06:32:23;10.85;;;3.22;;
62353;SDS011;48391;49.184;2.418;2023-02-01T06:34:49;11.07;;;3.25;;
62353;SDS011;48391;49.184;2.418;2023-02-01T06:37:17;5.43;;;3.22;;
62353;SDS011;48391;49.184;2.418;2023-02-01T06:39:45;6.18;;;2.85;;
62353;SDS011;48391;49.184;2.418;2023-02-01T06:42:11;10.35;;;3.78;;
62353;SDS011;48391;49.184;2.418;2023-02-01T06:44:37;14.15;;;4.30;;
62353;SDS011;48391;49.184;2.418;2023-02-01T06:47:04;15.50;;;5.47;;
62353;SDS011;48391;49.184;2.418;2023-02-01T06:49:30;14.70;;;6.53;;
62353;SDS011;48391;49.184;2.418;2023-02-01T06:51:56;12.77;;;4.97;;
62353;SDS011;48391;49.184;2.418;2023-02-01T06:54:25;10.68;;;3.70;;
62353;SDS011;48391;49.184;2.418;2023-02-01T06:56:51;9.23;;;3.78;;
62353;SDS011;48391;49.184;2.418;2023-02-01T06:59:17;9.02;;;3.50;;
62353;SDS011;48391;49.184;2.418;2023-02-01T07:01:43;16.10;;;3.33;;
62353;SDS011;48391;49.184;2.418;2023-02-01T07:04:12;10.57;;;3.30;;
62353;SDS011;48391;49.184;2.418;2023-02-01T07:06:41;13.35;;;4.45;;
62353;SDS011;48391;49.184;2.418;2023-02-01T07:09:07;14.32;;;4.20;;
62353;SDS011;48391;49.184;2.418;2023-02-01T07:11:33;7.30;;;2.85;;
62353;SDS011;48391;49.184;2.418;2023-02-01T07:13:59;11.38;;;3.03;;
62353;SDS011;48391;49.184;2.418;2023-02-01T07:16:26;7.35;;;3.20;;
62353;SDS011;48391;49.184;2.418;2023-02-01T07:18:52;10.30;;;3.78;;
62353;SDS011;48391;49.184;2.418;2023-02-01T07:21:19;10.00;;;3.42;;
62353;SDS011;48391;49.184;2.418;2023-02-01T07:23:45;5.10;;;1.98;;
62353;SDS011;48391;49.184;2.418;2023-02-01T07:26:12;13.25;;;2.75;;
62353;SDS011;48391;49.184;2.418;2023-02-01T07:28:38;6.80;;;2.33;;
62353;SDS011;48391;49.184;2.418;2023-02-01T07:33:32;6.20;;;1.42;;
62353;SDS011;48391;49.184;2.418;2023-02-01T07:35:59;6.68;;;2.28;;
62353;SDS011;48391;49.184;2.418;2023-02-01T07:38:26;5.03;;;2.88;;
62353;SDS011;48391;49.184;2.418;2023-02-01T07:40:56;3.28;;;1.98;;
62353;SDS011;48391;49.184;2.418;2023-02-01T07:43:22;6.60;;;1.63;;
62353;SDS011;48391;49.184;2.418;2023-02-01T07:45:52;5.00;;;1.48;;
62353;SDS011;48391;49.184;2.418;2023-02-01T07:48:19;10.15;;;2.80;;
62353;SDS011;48391;49.184;2.418;2023-02-01T07:50:45;11.48;;;2.65;;
62353;SDS011;48391;49.184;2.418;2023-02-01T07:53:11;9.48;;;2.75;;
62353;SDS011;48391;49.184;2.418;2023-02-01T07:55:37;10.45;;;4.30;;
62353;SDS011;48391;49.184;2.418;2023-02-01T07:58:03;7.55;;;3.55;;
62353;SDS011;48391;49.184;2.418;2023-02-01T08:00:29;13.63;;;4.28;;
62353;SDS011;48391;49.184;2.418;2023-02-01T08:03:14;12.18;;;3.17;;
62353;SDS011;48391;49.184;2.418;2023-02-01T08:05:40;10.13;;;3.25;;
62353;SDS011;48391;49.184;2.418;2023-02-01T08:08:06;8.73;;;3.05;;
62353;SDS011;48391;49.184;2.418;2023-02-01T08:10:33;9.13;;;3.17;;
62353;SDS011;48391;49.184;2.418;2023-02-01T08:13:00;9.88;;;3.88;;
62353;SDS011;48391;49.184;2.418;2023-02-01T08:15:26;11.63;;;3.80;;
62353;SDS011;48391;49.184;2.418;2023-02-01T08:17:53;14.88;;;3.95;;
62353;SDS011;48391;49.184;2.418;2023-02-01T08:20:20;12.63;;;3.22;;
62353;SDS011;48391;49.184;2.418;2023-02-01T08:22:52;9.93;;;2.95;;
62353;SDS011;48391;49.184;2.418;2023-02-01T08:25:18;10.45;;;2.45;;
62353;SDS011;48391;49.184;2.418;2023-02-01T08:27:45;9.70;;;2.97;;
62353;SDS011;48391;49.184;2.418;2023-02-01T08:30:11;7.47;;;2.78;;
62353;SDS011;48391;49.184;2.418;2023-02-01T08:32:40;13.82;;;2.78;;
62353;SDS011;48391;49.184;2.418;2023-02-01T08:35:06;11.85;;;4.05;;
62353;SDS011;48391;49.184;2.418;2023-02-01T08:37:33;12.10;;;3.08;;
62353;SDS011;48391;49.184;2.418;2023-02-01T08:39:59;13.80;;;4.03;;
62353;SDS011;48391;49.184;2.418;2023-02-01T08:42:25;16.55;;;4.70;;
62353;SDS011;48391;49.184;2.418;2023-02-01T08:45:10;11.07;;;3.60;;
62353;SDS011;48391;49.184;2.418;2023-02-01T08:47:36;12.95;;;2.85;;
62353;SDS011;48391;49.184;2.418;2023-02-01T08:50:02;11.05;;;3.85;;
62353;SDS011;48391;49.184;2.418;2023-02-01T08:52:28;14.02;;;4.65;;
62353;SDS011;48391;49.184;2.418;2023-02-01T08:54:55;18.98;;;5.05;;
62353;SDS011;48391;49.184;2.418;2023-02-01T08:57:20;14.18;;;4.45;;
62353;SDS011;48391;49.184;2.418;2023-02-01T08:59:46;14.75;;;2.60;;
62353;SDS011;48391;49.184;2.418;2023-02-01T09:02:13;11.10;;;2.53;;
62353;SDS011;48391;49.184;2.418;2023-02-01T09:04:40;15.50;;;3.13;;
62353;SDS011;48391;49.184;2.418;2023-02-01T09:07:06;15.57;;;4.57;;
62353;SDS011;48391;49.184;2.418;2023-02-01T09:09:32;15.20;;;3.38;;
62353;SDS011;48391;49.184;2.418;2023-02-01T09:11:58;11.95;;;2.80;;
62353;SDS011;48391;49.184;2.418;2023-02-01T09:14:24;11.65;;;2.13;;
62353;SDS011;48391;49.184;2.418;2023-02-01T09:16:50;8.93;;;2.42;;
62353;SDS011;48391;49.184;2.418;2023-02-01T09:19:16;10.13;;;2.45;;
62353;SDS011;48391;49.184;2.418;2023-02-01T09:21:42;12.10;;;2.92;;
62353;SDS011;48391;49.184;2.418;2023-02-01T09:24:12;11.20;;;2.90;;
62353;SDS011;48391;49.184;2.418;2023-02-01T09:26:38;7.00;;;2.53;;
62353;SDS011;48391;49.184;2.418;2023-02-01T09:29:04;14.55;;;3.75;;
62353;SDS011;48391;49.184;2.418;2023-02-01T09:31:35;13.30;;;3.42;;
62353;SDS011;48391;49.184;2.418;2023-02-01T09:34:01;13.27;;;2.60;;
62353;SDS011;48391;49.184;2.418;2023-02-01T09:36:27;15.75;;;3.70;;
62353;SDS011;48391;49.184;2.418;2023-02-01T09:38:53;12.25;;;3.47;;
62353;SDS011;48391;49.184;2.418;2023-02-01T09:44:05;10.02;;;2.65;;
62353;SDS011;48391;49.184;2.418;2023-02-01T09:46:32;9.93;;;2.80;;
62353;SDS011;48391;49.184;2.418;2023-02-01T09:49:43;11.07;;;2.88;;
62353;SDS011;48391;49.184;2.418;2023-02-01T09:51:51;9.98;;;3.40;;
62353;SDS011;48391;49.184;2.418;2023-02-01T09:54:18;6.82;;;2.47;;
62353;SDS011;48391;49.184;2.418;2023-02-01T09:59:49;12.52;;;2.90;;
62353;SDS011;48391;49.184;2.418;2023-02-01T10:02:17;13.63;;;4.35;;
62353;SDS011;48391;49.184;2.418;2023-02-01T10:04:44;12.35;;;3.83;;
62353;SDS011;48391;49.184;2.418;2023-02-01T10:07:13;9.05;;;3.10;;
62353;SDS011;48391;49.184;2.418;2023-02-01T10:09:42;10.90;;;3.35;;
62353;SDS011;48391;49.184;2.418;2023-02-01T10:17:36;10.25;;;2.53;;
62353;SDS011;48391;49.184;2.418;2023-02-01T10:20:52;19.73;;;3.63;;
62353;SDS011;48391;49.184;2.418;2023-02-01T10:25:55;17.85;;;3.30;;
62353;SDS011;48391;49.184;2.418;2023-02-01T10:28:22;11.88;;;2.72;;
62353;SDS011;48391;49.184;2.418;2023-02-01T10:30:50;8.82;;;2.65;;
62353;SDS011;48391;49.184;2.418;2023-02-01T10:33:19;7.07;;;2.83;;
62353;SDS011;48391;49.184;2.418;2023-02-01T10:35:48;12.35;;;2.50;;
62353;SDS011;48391;49.184;2.418;2023-02-01T10:38:28;17.05;;;3.17;;
62353;SDS011;48391;49.184;2.418;2023-02-01T10:40:55;12.18;;;2.88;;
62353;SDS011;48391;49.184;2.418;2023-02-01T10:43:22;11.45;;;2.33;;
62353;SDS011;48391;49.184;2.418;2023-02-01T10:45:48;11.45;;;2.70;;
62353;SDS011;48391;49.184;2.418;2023-02-01T10:48:14;10.05;;;2.25;;
62353;SDS011;48391;49.184;2.418;2023-02-01T10:50:44;8.43;;;2.83;;
62353;SDS011;48391;49.184;2.418;2023-02-01T10:55:47;4.95;;;2.33;;
62353;SDS011;48391;49.184;2.418;2023-02-01T10:58:18;8.30;;;2.75;;
62353;SDS011;48391;49.184;2.418;2023-02-01T11:00:48;7.82;;;3.13;;
62353;SDS011;48391;49.184;2.418;2023-02-01T11:03:34;14.57;;;2.92;;
62353;SDS011;48391;49.184;2.418;2023-02-01T11:06:09;13.73;;;2.80;;
62353;SDS011;48391;49.184;2.418;2023-02-01T11:08:46;10.20;;;2.67;;
62353;SDS011;48391;49.184;2.418;2023-02-01T11:11:13;6.43;;;2.42;;
62353;SDS011;48391;49.184;2.418;2023-02-01T11:13:39;7.07;;;2.25;;
62353;SDS011;48391;49.184;2.418;2023-02-01T11:16:06;13.52;;;2.70;;
62353;SDS011;48391;49.184;2.418;2023-02-01T11:18:35;4.70;;;2.55;;
62353;SDS011;48391;49.184;2.418;2023-02-01T11:21:01;17.23;;;2.83;;
62353;SDS011;48391;49.184;2.418;2023-02-01T11:23:28;11.68;;;3.45;;
62353;SDS011;48391;49.184;2.418;2023-02-01T11:28:31;8.63;;;2.65;;
62353;SDS011;48391;49.184;2.418;2023-02-01T11:33:34;14.00;;;2.65;;
62353;SDS011;48391;49.184;2.418;2023-02-01T11:36:08;6.90;;;3.40;;
62353;SDS011;48391;49.184;2.418;2023-02-01T11:38:34;18.02;;;3.63;;
62353;SDS011;48391;49.184;2.418;2023-02-01T11:41:13;18.35;;;5.18;;
62353;SDS011;48391;49.184;2.418;2023-02-01T11:43:50;10.15;;;3.30;;
62353;SDS011;48391;49.184;2.418;2023-02-01T11:46:18;9.23;;;3.65;;
62353;SDS011;48391;49.184;2.418;2023-02-01T11:48:49;14.52;;;2.65;;
62353;SDS011;48391;49.184;2.418;2023-02-01T12:05:05;5.95;;;2.40;;
62353;SDS011;48391;49.184;2.418;2023-02-01T12:06:55;10.60;;;3.40;;
62353;SDS011;48391;49.184;2.418;2023-02-01T12:12:03;7.28;;;2.00;;
62353;SDS011;48391;49.184;2.418;2023-02-01T12:18:08;7.32;;;2.40;;
62353;SDS011;48391;49.184;2.418;2023-02-01T12:32:55;10.40;;;2.45;;
62353;SDS011;48391;49.184;2.418;2023-02-01T12:42:59;17.73;;;3.13;;
62353;SDS011;48391;49.184;2.418;2023-02-01T12:45:36;12.43;;;3.03;;
62353;SDS011;48391;49.184;2.418;2023-02-01T12:48:13;9.68;;;2.35;;
62353;SDS011;48391;49.184;2.418;2023-02-01T12:50:47;9.07;;;2.40;;
62353;SDS011;48391;49.184;2.418;2023-02-01T12:53:18;12.10;;;3.22;;
62353;SDS011;48391;49.184;2.418;2023-02-01T12:55:49;6.82;;;2.38;;
62353;SDS011;48391;49.184;2.418;2023-02-01T12:58:18;6.18;;;2.20;;
62353;SDS011;48391;49.184;2.418;2023-02-01T13:05:53;10.45;;;3.00;;
62353;SDS011;48391;49.184;2.418;2023-02-01T13:08:22;6.13;;;1.95;;
62353;SDS011;48391;49.184;2.418;2023-02-01T13:11:50;5.78;;;1.85;;
62353;SDS011;48391;49.184;2.418;2023-02-01T13:13:52;10.98;;;2.75;;
62353;SDS011;48391;49.184;2.418;2023-02-01T13:16:27;10.90;;;2.10;;
62353;SDS011;48391;49.184;2.418;2023-02-01T13:21:42;3.58;;;2.15;;
62353;SDS011;48391;49.184;2.418;2023-02-01T13:24:22;10.43;;;2.38;;
62353;SDS011;48391;49.184;2.418;2023-02-01T13:26:48;6.43;;;2.55;;
62353;SDS011;48391;49.184;2.418;2023-02-01T13:29:15;8.40;;;1.90;;
62353;SDS011;48391;49.184;2.418;2023-02-01T13:37:09;7.35;;;2.22;;
62353;SDS011;48391;49.184;2.418;2023-02-01T13:39:56;8.95;;;3.55;;
62353;SDS011;48391;49.184;2.418;2023-02-01T13:42:26;10.60;;;3.28;;
62353;SDS011;48391;49.184;2.418;2023-02-01T13:47:24;3.03;;;1.52;;
62353;SDS011;48391;49.184;2.418;2023-02-01T13:49:51;5.93;;;1.88;;
62353;SDS011;48391;49.184;2.418;2023-02-01T13:52:24;7.90;;;2.58;;
62353;SDS011;48391;49.184;2.418;2023-02-01T13:55:00;5.20;;;2.35;;
62353;SDS011;48391;49.184;2.418;2023-02-01T13:57:39;12.18;;;4.03;;
62353;SDS011;48391;49.184;2.418;2023-02-01T14:00:51;5.93;;;2.30;;
62353;SDS011;48391;49.184;2.418;2023-02-01T14:24:17;9.23;;;1.25;;
62353;SDS011;48391;49.184;2.418;2023-02-01T14:29:02;7.70;;;1.88;;
62353;SDS011;48391;49.184;2.418;2023-02-01T14:33:59;12.25;;;2.35;;
62353;SDS011;48391;49.184;2.418;2023-02-01T14:36:26;22.65;;;2.55;;
62353;SDS011;48391;49.184;2.418;2023-02-01T14:38:52;14.43;;;2.45;;
62353;SDS011;48391;49.184;2.418;2023-02-01T14:49:14;8.55;;;1.80;;
62353;SDS011;48391;49.184;2.418;2023-02-01T14:51:40;8.02;;;2.50;;
62353;SDS011;48391;49.184;2.418;2023-02-01T14:54:09;9.68;;;2.00;;
62353;SDS011;48391;49.184;2.418;2023-02-01T14:56:38;5.82;;;1.73;;
62353;SDS011;48391;49.184;2.418;2023-02-01T14:59:08;7.50;;;2.63;;
62353;SDS011;48391;49.184;2.418;2023-02-01T15:01:35;9.75;;;1.77;;
62353;SDS011;48391;49.184;2.418;2023-02-01T15:14:43;15.68;;;4.50;;
62353;SDS011;48391;49.184;2.418;2023-02-01T15:17:29;12.70;;;3.15;;
62353;SDS011;48391;49.184;2.418;2023-02-01T15:20:15;9.00;;;2.83;;
62353;SDS011;48391;49.184;2.418;2023-02-01T15:22:41;5.80;;;1.85;;
62353;SDS011;48391;49.184;2.418;2023-02-01T15:25:20;9.82;;;1.73;;
62353;SDS011;48391;49.184;2.418;2023-02-01T15:27:47;4.28;;;1.80;;
62353;SDS011;48391;49.184;2.418;2023-02-01T15:30:17;8.30;;;3.00;;
62353;SDS011;48391;49.184;2.418;2023-02-01T15:32:44;10.23;;;1.95;;
62353;SDS011;48391;49.184;2.418;2023-02-01T15:38:17;9.73;;;2.63;;
62353;SDS011;48391;49.184;2.418;2023-02-01T15:40:52;10.85;;;4.07;;
62353;SDS011;48391;49.184;2.418;2023-02-01T15:43:19;7.00;;;2.10;;
62353;SDS011;48391;49.184;2.418;2023-02-01T15:45:45;9.73;;;2.75;;
62353;SDS011;48391;49.184;2.418;2023-02-01T15:48:11;10.73;;;2.75;;
62353;SDS011;48391;49.184;2.418;2023-02-01T15:50:40;7.45;;;2.95;;
62353;SDS011;48391;49.184;2.418;2023-02-01T15:53:09;9.55;;;2.80;;
62353;SDS011;48391;49.184;2.418;2023-02-01T15:55:42;7.88;;;2.10;;
62353;SDS011;48391;49.184;2.418;2023-02-01T15:58:41;10.95;;;2.88;;
62353;SDS011;48391;49.184;2.418;2023-02-01T16:06:02;5.95;;;2.15;;
62353;SDS011;48391;49.184;2.418;2023-02-01T16:08:29;11.90;;;2.90;;
62353;SDS011;48391;49.184;2.418;2023-02-01T16:11:13;7.70;;;2.63;;
62353;SDS011;48391;49.184;2.418;2023-02-01T16:13:40;8.93;;;2.15;;
62353;SDS011;48391;49.184;2.418;2023-02-01T16:16:07;12.80;;;3.40;;
62353;SDS011;48391;49.184;2.418;2023-02-01T16:18:38;6.13;;;1.90;;
62353;SDS011;48391;49.184;2.418;2023-02-01T16:21:04;7.95;;;2.67;;
62353;SDS011;48391;49.184;2.418;2023-02-01T16:23:32;6.88;;;2.10;;
62353;SDS011;48391;49.184;2.418;2023-02-01T16:25:58;9.80;;;3.72;;
62353;SDS011;48391;49.184;2.418;2023-02-01T16:28:24;10.93;;;2.38;;
62353;SDS011;48391;49.184;2.418;2023-02-01T16:30:51;7.90;;;2.42;;
62353;SDS011;48391;49.184;2.418;2023-02-01T16:33:18;7.50;;;2.30;;
62353;SDS011;48391;49.184;2.418;2023-02-01T16:35:46;7.13;;;2.00;;
62353;SDS011;48391;49.184;2.418;2023-02-01T16:38:13;5.88;;;1.40;;
62353;SDS011;48391;49.184;2.418;2023-02-01T16:40:41;7.30;;;1.77;;
62353;SDS011;48391;49.184;2.418;2023-02-01T16:43:14;9.07;;;2.63;;
62353;SDS011;48391;49.184;2.418;2023-02-01T16:45:42;6.80;;;2.40;;
62353;SDS011;48391;49.184;2.418;2023-02-01T16:51:12;8.25;;;2.08;;
62353;SDS011;48391;49.184;2.418;2023-02-01T16:53:38;9.57;;;2.17;;
62353;SDS011;48391;49.184;2.418;2023-02-01T16:58:40;4.95;;;1.40;;
62353;SDS011;48391;49.184;2.418;2023-02-01T17:03:36;6.97;;;1.52;;
62353;SDS011;48391;49.184;2.418;2023-02-01T17:06:02;8.45;;;1.25;;
62353;SDS011;48391;49.184;2.418;2023-02-01T17:08:32;8.48;;;2.25;;
62353;SDS011;48391;49.184;2.418;2023-02-01T17:11:00;7.00;;;2.53;;
62353;SDS011;48391;49.184;2.418;2023-02-01T17:13:26;8.23;;;2.10;;
62353;SDS011;48391;49.184;2.418;2023-02-01T17:15:53;9.18;;;2.45;;
62353;SDS011;48391;49.184;2.418;2023-02-01T17:18:20;4.68;;;1.23;;
62353;SDS011;48391;49.184;2.418;2023-02-01T17:20:46;12.05;;;2.78;;
62353;SDS011;48391;49.184;2.418;2023-02-01T17:23:14;3.33;;;1.13;;
62353;SDS011;48391;49.184;2.418;2023-02-01T17:25:40;8.43;;;1.92;;
62353;SDS011;48391;49.184;2.418;2023-02-01T17:28:06;3.92;;;1.98;;
62353;SDS011;48391;49.184;2.418;2023-02-01T17:30:32;3.33;;;1.35;;
62353;SDS011;48391;49.184;2.418;2023-02-01T17:32:59;2.80;;;1.67;;
62353;SDS011;48391;49.184;2.418;2023-02-01T17:35:26;7.40;;;2.40;;
62353;SDS011;48391;49.184;2.418;2023-02-01T17:37:52;2.25;;;0.75;;
62353;SDS011;48391;49.184;2.418;2023-02-01T17:40:19;10.00;;;2.47;;
62353;SDS011;48391;49.184;2.418;2023-02-01T17:42:45;10.18;;;2.33;;
62353;SDS011;48391;49.184;2.418;2023-02-01T17:47:56;6.38;;;1.00;;
62353;SDS011;48391;49.184;2.418;2023-02-01T17:50:22;4.72;;;1.17;;